sensor_id;sensor_type;location;lat;lon;timestamp;P1;durP1;ratioP1;P2;durP2;ratioP2
40601;SDS011;26310;50.278;19.032;2022-08-20T00:04:24;17.50;;;10.70;;
40601;SDS011;26310;50.278;19.032;2022-08-20T00:09:27;18.67;;;11.52;;
40601;SDS011;26310;50.278;19.032;2022-08-20T00:14:31;16.83;;;11.00;;
40601;SDS011;26310;50.278;19.032;2022-08-20T00:19:34;17.48;;;11.43;;
40601;SDS011;26310;50.278;19.032;2022-08-20T00:24:37;15.00;;;11.00;;
40601;SDS011;26310;50.278;19.032;2022-08-20T00:29:39;18.05;;;11.68;;
40601;SDS011;26310;50.278;19.032;2022-08-20T00:34:42;15.43;;;10.82;;
40601;SDS011;26310;50.278;19.032;2022-08-20T00:39:45;16.13;;;11.75;;
40601;SDS011;26310;50.278;19.032;2022-08-20T00:44:48;17.02;;;11.93;;
40601;SDS011;26310;50.278;19.032;2022-08-20T00:49:51;17.05;;;11.77;;
40601;SDS011;26310;50.278;19.032;2022-08-20T00:54:54;18.00;;;12.02;;
40601;SDS011;26310;50.278;19.032;2022-08-20T01:00:00;18.63;;;12.75;;
40601;SDS011;26310;50.278;19.032;2022-08-20T01:05:05;23.77;;;13.93;;
40601;SDS011;26310;50.278;19.032;2022-08-20T01:10:11;21.63;;;12.00;;
40601;SDS011;26310;50.278;19.032;2022-08-20T01:15:20;18.90;;;13.23;;
40601;SDS011;26310;50.278;19.032;2022-08-20T01:20:33;20.38;;;12.95;;
40601;SDS011;26310;50.278;19.032;2022-08-20T01:30:48;20.70;;;13.70;;
40601;SDS011;26310;50.278;19.032;2022-08-20T01:35:51;22.88;;;13.73;;
40601;SDS011;26310;50.278;19.032;2022-08-20T01:46:39;20.92;;;13.90;;
40601;SDS011;26310;50.278;19.032;2022-08-20T01:51:44;19.85;;;12.63;;
40601;SDS011;26310;50.278;19.032;2022-08-20T01:56:54;22.33;;;12.80;;
40601;SDS011;26310;50.278;19.032;2022-08-20T02:02:11;23.33;;;13.75;;
40601;SDS011;26310;50.278;19.032;2022-08-20T02:07:15;20.67;;;13.18;;
40601;SDS011;26310;50.278;19.032;2022-08-20T02:12:19;19.98;;;13.57;;
40601;SDS011;26310;50.278;19.032;2022-08-20T02:17:23;20.75;;;13.15;;
40601;SDS011;26310;50.278;19.032;2022-08-20T02:27:51;21.17;;;13.27;;
40601;SDS011;26310;50.278;19.032;2022-08-20T02:32:56;20.27;;;12.70;;
40601;SDS011;26310;50.278;19.032;2022-08-20T02:37:59;18.45;;;13.15;;
40601;SDS011;26310;50.278;19.032;2022-08-20T02:43:03;21.40;;;12.65;;
40601;SDS011;26310;50.278;19.032;2022-08-20T02:48:06;21.27;;;13.30;;
40601;SDS011;26310;50.278;19.032;2022-08-20T02:53:09;18.85;;;13.18;;
40601;SDS011;26310;50.278;19.032;2022-08-20T02:58:12;18.33;;;12.10;;
40601;SDS011;26310;50.278;19.032;2022-08-20T03:03:15;20.60;;;14.23;;
40601;SDS011;26310;50.278;19.032;2022-08-20T03:08:23;21.02;;;12.73;;
40601;SDS011;26310;50.278;19.032;2022-08-20T03:13:28;18.65;;;12.15;;
40601;SDS011;26310;50.278;19.032;2022-08-20T03:18:32;20.80;;;14.43;;
40601;SDS011;26310;50.278;19.032;2022-08-20T03:23:37;21.42;;;14.23;;
40601;SDS011;26310;50.278;19.032;2022-08-20T03:28:41;18.65;;;13.48;;
40601;SDS011;26310;50.278;19.032;2022-08-20T03:33:44;23.75;;;14.93;;
40601;SDS011;26310;50.278;19.032;2022-08-20T03:38:58;22.45;;;14.60;;
40601;SDS011;26310;50.278;19.032;2022-08-20T03:44:02;24.60;;;13.88;;
40601;SDS011;26310;50.278;19.032;2022-08-20T03:49:07;17.63;;;13.25;;
40601;SDS011;26310;50.278;19.032;2022-08-20T03:54:10;22.35;;;15.45;;
40601;SDS011;26310;50.278;19.032;2022-08-20T03:59:13;22.20;;;13.73;;
40601;SDS011;26310;50.278;19.032;2022-08-20T04:04:15;19.55;;;12.98;;
40601;SDS011;26310;50.278;19.032;2022-08-20T04:09:18;19.58;;;13.40;;
40601;SDS011;26310;50.278;19.032;2022-08-20T04:14:21;26.83;;;14.05;;
40601;SDS011;26310;50.278;19.032;2022-08-20T04:19:24;23.08;;;14.73;;
40601;SDS011;26310;50.278;19.032;2022-08-20T04:24:31;23.23;;;14.73;;
40601;SDS011;26310;50.278;19.032;2022-08-20T04:29:35;22.02;;;14.02;;
40601;SDS011;26310;50.278;19.032;2022-08-20T04:34:43;25.35;;;15.45;;
40601;SDS011;26310;50.278;19.032;2022-08-20T04:39:48;25.00;;;14.77;;
40601;SDS011;26310;50.278;19.032;2022-08-20T04:45:09;19.85;;;13.13;;
40601;SDS011;26310;50.278;19.032;2022-08-20T04:50:12;19.42;;;13.30;;
40601;SDS011;26310;50.278;19.032;2022-08-20T04:55:15;25.13;;;14.35;;
40601;SDS011;26310;50.278;19.032;2022-08-20T05:00:19;20.20;;;13.07;;
40601;SDS011;26310;50.278;19.032;2022-08-20T05:05:22;22.90;;;13.40;;
40601;SDS011;26310;50.278;19.032;2022-08-20T05:10:25;23.80;;;13.93;;
40601;SDS011;26310;50.278;19.032;2022-08-20T05:15:28;21.30;;;13.63;;
40601;SDS011;26310;50.278;19.032;2022-08-20T05:20:31;22.15;;;13.80;;
40601;SDS011;26310;50.278;19.032;2022-08-20T05:25:36;19.40;;;13.05;;
40601;SDS011;26310;50.278;19.032;2022-08-20T05:30:41;23.02;;;13.40;;
40601;SDS011;26310;50.278;19.032;2022-08-20T05:35:48;22.45;;;13.98;;
40601;SDS011;26310;50.278;19.032;2022-08-20T05:40:53;23.00;;;13.82;;
40601;SDS011;26310;50.278;19.032;2022-08-20T05:45:56;23.80;;;14.40;;
40601;SDS011;26310;50.278;19.032;2022-08-20T05:51:00;19.77;;;13.68;;
40601;SDS011;26310;50.278;19.032;2022-08-20T05:56:03;22.85;;;14.73;;
40601;SDS011;26310;50.278;19.032;2022-08-20T06:01:05;27.52;;;16.83;;
40601;SDS011;26310;50.278;19.032;2022-08-20T06:06:08;22.35;;;15.45;;
40601;SDS011;26310;50.278;19.032;2022-08-20T06:11:31;24.50;;;14.32;;
40601;SDS011;26310;50.278;19.032;2022-08-20T06:16:38;18.17;;;12.80;;
40601;SDS011;26310;50.278;19.032;2022-08-20T06:21:59;23.67;;;13.63;;
40601;SDS011;26310;50.278;19.032;2022-08-20T06:27:18;22.85;;;15.45;;
40601;SDS011;26310;50.278;19.032;2022-08-20T06:32:21;22.88;;;14.15;;
40601;SDS011;26310;50.278;19.032;2022-08-20T06:37:33;20.23;;;13.38;;
40601;SDS011;26310;50.278;19.032;2022-08-20T06:42:37;18.58;;;12.50;;
40601;SDS011;26310;50.278;19.032;2022-08-20T06:47:49;17.55;;;13.73;;
40601;SDS011;26310;50.278;19.032;2022-08-20T06:52:53;21.33;;;14.20;;
40601;SDS011;26310;50.278;19.032;2022-08-20T06:57:57;27.02;;;16.15;;
40601;SDS011;26310;50.278;19.032;2022-08-20T07:03:02;21.13;;;13.65;;
40601;SDS011;26310;50.278;19.032;2022-08-20T07:08:05;21.35;;;13.93;;
40601;SDS011;26310;50.278;19.032;2022-08-20T07:13:10;22.13;;;14.50;;
40601;SDS011;26310;50.278;19.032;2022-08-20T07:18:15;21.63;;;13.85;;
40601;SDS011;26310;50.278;19.032;2022-08-20T07:23:29;19.95;;;11.95;;
40601;SDS011;26310;50.278;19.032;2022-08-20T07:28:32;14.90;;;11.38;;
40601;SDS011;26310;50.278;19.032;2022-08-20T07:33:35;17.98;;;12.05;;
40601;SDS011;26310;50.278;19.032;2022-08-20T07:38:40;22.75;;;13.07;;
40601;SDS011;26310;50.278;19.032;2022-08-20T07:43:48;17.20;;;12.65;;
40601;SDS011;26310;50.278;19.032;2022-08-20T07:48:50;14.10;;;11.70;;
40601;SDS011;26310;50.278;19.032;2022-08-20T07:53:53;22.15;;;12.32;;
40601;SDS011;26310;50.278;19.032;2022-08-20T07:58:58;19.38;;;13.10;;
40601;SDS011;26310;50.278;19.032;2022-08-20T08:04:02;17.17;;;10.20;;
40601;SDS011;26310;50.278;19.032;2022-08-20T08:09:08;14.10;;;10.55;;
40601;SDS011;26310;50.278;19.032;2022-08-20T08:14:13;19.08;;;11.75;;
40601;SDS011;26310;50.278;19.032;2022-08-20T08:19:21;18.27;;;12.75;;
40601;SDS011;26310;50.278;19.032;2022-08-20T08:24:25;15.13;;;10.45;;
40601;SDS011;26310;50.278;19.032;2022-08-20T08:29:29;14.65;;;10.60;;
40601;SDS011;26310;50.278;19.032;2022-08-20T08:34:33;14.65;;;10.95;;
40601;SDS011;26310;50.278;19.032;2022-08-20T08:39:36;15.60;;;10.98;;
40601;SDS011;26310;50.278;19.032;2022-08-20T08:44:41;18.83;;;11.48;;
40601;SDS011;26310;50.278;19.032;2022-08-20T08:49:44;16.65;;;11.05;;
40601;SDS011;26310;50.278;19.032;2022-08-20T08:54:49;19.50;;;12.95;;
40601;SDS011;26310;50.278;19.032;2022-08-20T08:59:55;18.35;;;12.68;;
40601;SDS011;26310;50.278;19.032;2022-08-20T09:05:15;16.35;;;11.85;;
40601;SDS011;26310;50.278;19.032;2022-08-20T09:10:18;16.80;;;11.05;;
40601;SDS011;26310;50.278;19.032;2022-08-20T09:15:23;17.35;;;12.30;;
40601;SDS011;26310;50.278;19.032;2022-08-20T09:20:26;16.63;;;11.45;;
40601;SDS011;26310;50.278;19.032;2022-08-20T09:25:32;24.05;;;13.40;;
40601;SDS011;26310;50.278;19.032;2022-08-20T09:30:35;19.38;;;14.18;;
40601;SDS011;26310;50.278;19.032;2022-08-20T09:35:38;14.88;;;10.30;;
40601;SDS011;26310;50.278;19.032;2022-08-20T09:40:41;13.75;;;10.07;;
40601;SDS011;26310;50.278;19.032;2022-08-20T09:45:45;16.60;;;10.40;;
40601;SDS011;26310;50.278;19.032;2022-08-20T09:50:47;18.23;;;10.25;;
40601;SDS011;26310;50.278;19.032;2022-08-20T09:55:51;18.40;;;9.93;;
40601;SDS011;26310;50.278;19.032;2022-08-20T10:00:54;17.13;;;9.82;;
40601;SDS011;26310;50.278;19.032;2022-08-20T10:05:57;13.27;;;7.32;;
40601;SDS011;26310;50.278;19.032;2022-08-20T10:11:00;9.18;;;6.88;;
40601;SDS011;26310;50.278;19.032;2022-08-20T10:16:03;9.13;;;7.22;;
40601;SDS011;26310;50.278;19.032;2022-08-20T10:21:09;9.45;;;6.55;;
40601;SDS011;26310;50.278;19.032;2022-08-20T10:26:12;12.55;;;6.43;;
40601;SDS011;26310;50.278;19.032;2022-08-20T10:31:15;12.50;;;7.65;;
40601;SDS011;26310;50.278;19.032;2022-08-20T10:36:18;15.27;;;7.82;;
40601;SDS011;26310;50.278;19.032;2022-08-20T10:41:21;11.80;;;6.78;;
40601;SDS011;26310;50.278;19.032;2022-08-20T10:46:24;16.17;;;9.70;;
40601;SDS011;26310;50.278;19.032;2022-08-20T10:51:26;11.65;;;8.38;;
40601;SDS011;26310;50.278;19.032;2022-08-20T10:56:33;12.93;;;7.30;;
40601;SDS011;26310;50.278;19.032;2022-08-20T11:01:36;13.25;;;6.65;;
40601;SDS011;26310;50.278;19.032;2022-08-20T11:06:39;12.32;;;6.07;;
40601;SDS011;26310;50.278;19.032;2022-08-20T11:11:41;11.07;;;5.70;;
40601;SDS011;26310;50.278;19.032;2022-08-20T11:16:44;9.32;;;6.00;;
40601;SDS011;26310;50.278;19.032;2022-08-20T11:21:47;12.93;;;6.28;;
40601;SDS011;26310;50.278;19.032;2022-08-20T11:26:50;13.13;;;7.22;;
40601;SDS011;26310;50.278;19.032;2022-08-20T11:31:53;9.82;;;6.95;;
40601;SDS011;26310;50.278;19.032;2022-08-20T11:36:56;12.18;;;7.88;;
40601;SDS011;26310;50.278;19.032;2022-08-20T11:41:59;11.52;;;8.02;;
40601;SDS011;26310;50.278;19.032;2022-08-20T11:47:03;19.30;;;8.10;;
40601;SDS011;26310;50.278;19.032;2022-08-20T11:52:07;11.25;;;7.60;;
40601;SDS011;26310;50.278;19.032;2022-08-20T11:57:10;9.45;;;7.68;;
40601;SDS011;26310;50.278;19.032;2022-08-20T12:02:12;11.98;;;7.65;;
40601;SDS011;26310;50.278;19.032;2022-08-20T12:07:16;15.32;;;8.25;;
40601;SDS011;26310;50.278;19.032;2022-08-20T12:12:21;16.38;;;8.82;;
40601;SDS011;26310;50.278;19.032;2022-08-20T12:17:25;13.63;;;9.02;;
40601;SDS011;26310;50.278;19.032;2022-08-20T12:22:29;19.75;;;10.18;;
40601;SDS011;26310;50.278;19.032;2022-08-20T12:27:32;16.50;;;9.82;;
40601;SDS011;26310;50.278;19.032;2022-08-20T12:32:36;14.68;;;10.00;;
40601;SDS011;26310;50.278;19.032;2022-08-20T12:37:40;15.65;;;10.45;;
40601;SDS011;26310;50.278;19.032;2022-08-20T12:42:43;13.98;;;9.48;;
40601;SDS011;26310;50.278;19.032;2022-08-20T12:47:46;15.18;;;10.38;;
40601;SDS011;26310;50.278;19.032;2022-08-20T12:52:50;13.38;;;9.00;;
40601;SDS011;26310;50.278;19.032;2022-08-20T12:57:54;18.77;;;10.02;;
40601;SDS011;26310;50.278;19.032;2022-08-20T13:03:00;14.13;;;9.18;;
40601;SDS011;26310;50.278;19.032;2022-08-20T13:08:05;15.43;;;9.48;;
40601;SDS011;26310;50.278;19.032;2022-08-20T13:13:09;14.80;;;8.85;;
40601;SDS011;26310;50.278;19.032;2022-08-20T13:18:13;16.80;;;9.23;;
40601;SDS011;26310;50.278;19.032;2022-08-20T13:23:15;14.68;;;9.57;;
40601;SDS011;26310;50.278;19.032;2022-08-20T13:28:18;13.63;;;9.50;;
40601;SDS011;26310;50.278;19.032;2022-08-20T13:33:21;14.10;;;10.27;;
40601;SDS011;26310;50.278;19.032;2022-08-20T13:38:26;21.17;;;13.73;;
40601;SDS011;26310;50.278;19.032;2022-08-20T13:43:29;17.67;;;12.13;;
40601;SDS011;26310;50.278;19.032;2022-08-20T13:48:32;17.48;;;10.93;;
40601;SDS011;26310;50.278;19.032;2022-08-20T13:53:34;15.45;;;9.85;;
40601;SDS011;26310;50.278;19.032;2022-08-20T13:58:37;19.73;;;9.30;;
40601;SDS011;26310;50.278;19.032;2022-08-20T14:03:40;16.27;;;8.68;;
40601;SDS011;26310;50.278;19.032;2022-08-20T14:08:43;16.50;;;7.82;;
40601;SDS011;26310;50.278;19.032;2022-08-20T14:13:48;14.90;;;8.55;;
40601;SDS011;26310;50.278;19.032;2022-08-20T14:19:21;12.80;;;7.50;;
40601;SDS011;26310;50.278;19.032;2022-08-20T14:24:23;11.70;;;7.25;;
40601;SDS011;26310;50.278;19.032;2022-08-20T14:29:26;12.35;;;8.27;;
40601;SDS011;26310;50.278;19.032;2022-08-20T14:34:36;12.70;;;9.02;;
40601;SDS011;26310;50.278;19.032;2022-08-20T14:39:40;14.90;;;7.90;;
40601;SDS011;26310;50.278;19.032;2022-08-20T14:44:43;12.38;;;9.30;;
40601;SDS011;26310;50.278;19.032;2022-08-20T14:49:47;12.45;;;8.60;;
40601;SDS011;26310;50.278;19.032;2022-08-20T14:54:51;14.90;;;8.88;;
40601;SDS011;26310;50.278;19.032;2022-08-20T14:59:54;16.77;;;8.63;;
40601;SDS011;26310;50.278;19.032;2022-08-20T15:04:56;19.95;;;9.88;;
40601;SDS011;26310;50.278;19.032;2022-08-20T15:09:59;16.08;;;9.40;;
40601;SDS011;26310;50.278;19.032;2022-08-20T15:15:07;16.08;;;9.32;;
40601;SDS011;26310;50.278;19.032;2022-08-20T15:20:17;12.50;;;8.60;;
40601;SDS011;26310;50.278;19.032;2022-08-20T15:25:24;13.70;;;8.52;;
40601;SDS011;26310;50.278;19.032;2022-08-20T15:30:39;15.07;;;9.75;;
40601;SDS011;26310;50.278;19.032;2022-08-20T15:35:42;11.38;;;8.55;;
40601;SDS011;26310;50.278;19.032;2022-08-20T15:40:45;14.88;;;8.63;;
40601;SDS011;26310;50.278;19.032;2022-08-20T15:45:47;12.48;;;7.47;;
40601;SDS011;26310;50.278;19.032;2022-08-20T15:56:28;11.40;;;7.72;;
40601;SDS011;26310;50.278;19.032;2022-08-20T16:07:35;12.25;;;8.27;;
40601;SDS011;26310;50.278;19.032;2022-08-20T16:12:49;14.25;;;8.70;;
40601;SDS011;26310;50.278;19.032;2022-08-20T16:23:30;11.25;;;8.68;;
40601;SDS011;26310;50.278;19.032;2022-08-20T16:28:50;10.90;;;7.65;;
40601;SDS011;26310;50.278;19.032;2022-08-20T16:34:09;13.60;;;7.90;;
40601;SDS011;26310;50.278;19.032;2022-08-20T16:39:41;9.30;;;7.38;;
40601;SDS011;26310;50.278;19.032;2022-08-20T16:45:08;12.10;;;7.18;;
40601;SDS011;26310;50.278;19.032;2022-08-20T16:50:24;10.95;;;8.48;;
40601;SDS011;26310;50.278;19.032;2022-08-20T16:55:30;18.67;;;8.75;;
40601;SDS011;26310;50.278;19.032;2022-08-20T17:00:33;12.15;;;8.60;;
40601;SDS011;26310;50.278;19.032;2022-08-20T17:05:46;12.02;;;9.13;;
40601;SDS011;26310;50.278;19.032;2022-08-20T17:21:18;14.65;;;9.55;;
40601;SDS011;26310;50.278;19.032;2022-08-20T17:26:43;13.10;;;9.45;;
40601;SDS011;26310;50.278;19.032;2022-08-20T17:31:59;16.50;;;9.68;;
40601;SDS011;26310;50.278;19.032;2022-08-20T17:37:21;12.13;;;8.63;;
40601;SDS011;26310;50.278;19.032;2022-08-20T17:42:33;11.85;;;8.45;;
40601;SDS011;26310;50.278;19.032;2022-08-20T17:47:55;12.40;;;8.68;;
40601;SDS011;26310;50.278;19.032;2022-08-20T17:53:05;13.20;;;8.30;;
40601;SDS011;26310;50.278;19.032;2022-08-20T17:58:27;14.32;;;8.98;;
40601;SDS011;26310;50.278;19.032;2022-08-20T18:03:55;11.05;;;8.70;;
40601;SDS011;26310;50.278;19.032;2022-08-20T18:09:15;11.52;;;8.95;;
40601;SDS011;26310;50.278;19.032;2022-08-20T18:29:59;13.57;;;9.63;;
40601;SDS011;26310;50.278;19.032;2022-08-20T18:35:22;17.30;;;9.77;;
40601;SDS011;26310;50.278;19.032;2022-08-20T18:40:35;15.07;;;10.68;;
40601;SDS011;26310;50.278;19.032;2022-08-20T18:45:39;15.32;;;11.25;;
40601;SDS011;26310;50.278;19.032;2022-08-20T18:50:45;18.92;;;12.43;;
40601;SDS011;26310;50.278;19.032;2022-08-20T19:01:04;21.65;;;13.25;;
40601;SDS011;26310;50.278;19.032;2022-08-20T19:17:01;19.75;;;13.13;;
40601;SDS011;26310;50.278;19.032;2022-08-20T19:22:12;17.45;;;12.50;;
40601;SDS011;26310;50.278;19.032;2022-08-20T19:27:17;20.15;;;13.10;;
40601;SDS011;26310;50.278;19.032;2022-08-20T19:32:22;20.00;;;12.85;;
40601;SDS011;26310;50.278;19.032;2022-08-20T19:37:31;15.88;;;11.57;;
40601;SDS011;26310;50.278;19.032;2022-08-20T19:42:52;21.33;;;13.40;;
40601;SDS011;26310;50.278;19.032;2022-08-20T19:47:59;20.05;;;13.35;;
40601;SDS011;26310;50.278;19.032;2022-08-20T19:53:22;22.30;;;14.23;;
40601;SDS011;26310;50.278;19.032;2022-08-20T19:58:31;21.45;;;13.88;;
40601;SDS011;26310;50.278;19.032;2022-08-20T20:03:35;28.20;;;15.63;;
40601;SDS011;26310;50.278;19.032;2022-08-20T20:08:42;23.20;;;15.65;;
40601;SDS011;26310;50.278;19.032;2022-08-20T20:13:50;27.90;;;16.35;;
40601;SDS011;26310;50.278;19.032;2022-08-20T20:18:53;29.05;;;15.93;;
40601;SDS011;26310;50.278;19.032;2022-08-20T20:24:23;25.65;;;16.00;;
40601;SDS011;26310;50.278;19.032;2022-08-20T20:29:33;23.35;;;14.80;;
40601;SDS011;26310;50.278;19.032;2022-08-20T20:34:37;23.10;;;14.85;;
40601;SDS011;26310;50.278;19.032;2022-08-20T20:40:24;25.75;;;15.15;;
40601;SDS011;26310;50.278;19.032;2022-08-20T20:45:33;23.85;;;13.18;;
40601;SDS011;26310;50.278;19.032;2022-08-20T20:50:38;21.10;;;14.27;;
40601;SDS011;26310;50.278;19.032;2022-08-20T20:55:41;19.55;;;12.80;;
40601;SDS011;26310;50.278;19.032;2022-08-20T21:00:55;25.15;;;13.57;;
40601;SDS011;26310;50.278;19.032;2022-08-20T21:05:58;18.70;;;12.82;;
40601;SDS011;26310;50.278;19.032;2022-08-20T21:11:01;23.25;;;13.63;;
40601;SDS011;26310;50.278;19.032;2022-08-20T21:16:04;19.98;;;12.65;;
40601;SDS011;26310;50.278;19.032;2022-08-20T21:21:08;21.45;;;13.48;;
40601;SDS011;26310;50.278;19.032;2022-08-20T21:26:11;19.02;;;13.88;;
40601;SDS011;26310;50.278;19.032;2022-08-20T21:31:14;20.58;;;14.18;;
40601;SDS011;26310;50.278;19.032;2022-08-20T21:36:17;20.00;;;13.15;;
40601;SDS011;26310;50.278;19.032;2022-08-20T21:41:19;22.58;;;14.75;;
40601;SDS011;26310;50.278;19.032;2022-08-20T21:46:30;23.33;;;14.98;;
40601;SDS011;26310;50.278;19.032;2022-08-20T21:51:33;19.80;;;12.73;;
40601;SDS011;26310;50.278;19.032;2022-08-20T21:56:36;24.20;;;14.55;;
40601;SDS011;26310;50.278;19.032;2022-08-20T22:01:39;19.52;;;13.35;;
40601;SDS011;26310;50.278;19.032;2022-08-20T22:06:42;17.15;;;13.27;;
40601;SDS011;26310;50.278;19.032;2022-08-20T22:11:45;19.15;;;13.02;;
40601;SDS011;26310;50.278;19.032;2022-08-20T22:16:54;19.02;;;11.00;;
40601;SDS011;26310;50.278;19.032;2022-08-20T22:21:57;19.08;;;11.95;;
40601;SDS011;26310;50.278;19.032;2022-08-20T22:27:01;16.13;;;11.27;;
40601;SDS011;26310;50.278;19.032;2022-08-20T22:32:04;19.05;;;11.75;;
40601;SDS011;26310;50.278;19.032;2022-08-20T22:37:07;20.70;;;11.37;;
40601;SDS011;26310;50.278;19.032;2022-08-20T22:42:11;18.80;;;11.20;;
40601;SDS011;26310;50.278;19.032;2022-08-20T22:47:14;19.27;;;11.35;;
40601;SDS011;26310;50.278;19.032;2022-08-20T22:52:22;17.70;;;11.80;;
40601;SDS011;26310;50.278;19.032;2022-08-20T22:57:27;17.10;;;11.05;;
40601;SDS011;26310;50.278;19.032;2022-08-20T23:02:29;15.98;;;10.45;;
40601;SDS011;26310;50.278;19.032;2022-08-20T23:07:32;17.15;;;11.07;;
40601;SDS011;26310;50.278;19.032;2022-08-20T23:12:35;18.45;;;10.93;;
40601;SDS011;26310;50.278;19.032;2022-08-20T23:17:38;20.65;;;10.82;;
40601;SDS011;26310;50.278;19.032;2022-08-20T23:22:41;14.85;;;11.77;;
40601;SDS011;26310;50.278;19.032;2022-08-20T23:27:46;18.55;;;12.15;;
40601;SDS011;26310;50.278;19.032;2022-08-20T23:32:51;20.35;;;12.55;;
40601;SDS011;26310;50.278;19.032;2022-08-20T23:37:56;18.45;;;13.27;;
40601;SDS011;26310;50.278;19.032;2022-08-20T23:42:59;21.13;;;13.50;;
40601;SDS011;26310;50.278;19.032;2022-08-20T23:48:02;28.90;;;15.73;;
40601;SDS011;26310;50.278;19.032;2022-08-20T23:53:05;24.33;;;15.30;;
40601;SDS011;26310;50.278;19.032;2022-08-20T23:58:08;22.30;;;15.55;;
